Time;durP1;ratioP1;P1;durP2;ratioP2;P2;SDS_P1;SDS_P2;PMS_P1;PMS_P2;Temp;Humidity;BMP_temperature;BMP_pressure;BME280_temperature;BME280_humidity;BME280_pressure;Samples;Min_cycle;Max_cycle;Signal;HPM_P1;HPM_P2
2023/09/01 00:01:13;;;;;;;27.58;4.07;;;38.90;71.60;;;;;;5027319;28;20112;-65
2023/09/01 00:03:40;;;;;;;29.25;4.82;;;38.80;71.60;;;;;;5027088;28;20024;-62
2023/09/01 00:06:16;;;;;;;37.53;5.03;;;38.90;71.20;;;;;;5024836;28;20376;-65
2023/09/01 00:08:43;;;;;;;19.15;3.88;;;38.70;71.00;;;;;;5026876;28;20026;-65
2023/09/01 00:11:11;;;;;;;19.92;4.32;;;38.70;71.50;;;;;;5026470;28;20029;-61
2023/09/01 00:13:37;;;;;;;33.22;4.95;;;38.70;72.20;;;;;;5026115;28;20486;-60
2023/09/01 00:16:04;;;;;;;14.88;4.28;;;38.60;73.20;;;;;;5026700;28;20117;-63
2023/09/01 00:18:30;;;;;;;20.52;3.97;;;38.50;73.40;;;;;;5024227;28;20501;-64
2023/09/01 00:21:01;;;;;;;27.02;4.95;;;38.50;73.50;;;;;;5026104;28;20017;-62
2023/09/01 00:23:28;;;;;;;27.20;5.30;;;38.30;73.60;;;;;;5025798;28;20013;-65
2023/09/01 00:25:59;;;;;;;24.02;5.10;;;38.30;74.30;;;;;;5026674;28;20445;-64
2023/09/01 00:28:26;;;;;;;29.35;5.55;;;38.30;75.40;;;;;;5025060;28;20010;-60
2023/09/01 00:30:56;;;;;;;27.20;4.53;;;38.30;76.10;;;;;;5025358;28;20103;-63
2023/09/01 00:33:26;;;;;;;45.67;5.63;;;38.20;76.40;;;;;;5025300;28;21264;-63
2023/09/01 00:35:54;;;;;;;44.72;5.75;;;38.20;74.50;;;;;;5026830;28;20494;-64
2023/09/01 00:38:21;;;;;;;65.97;6.47;;;38.20;73.70;;;;;;5024997;28;20022;-65
2023/09/01 00:40:48;;;;;;;141.73;8.45;;;38.20;73.50;;;;;;5024635;28;20013;-61
2023/09/01 00:43:16;;;;;;;145.93;8.80;;;38.20;57.40;;;;;;5024482;28;20128;-63
2023/09/01 00:45:42;;;;;;;144.73;9.48;;;38.20;56.70;;;;;;5026010;28;20391;-64
2023/09/01 00:48:09;;;;;;;184.38;10.68;;;38.30;56.40;;;;;;5026196;28;20079;-63
2023/09/01 00:50:39;;;;;;;151.48;10.10;;;38.30;55.50;;;;;;5024941;28;20491;-62
2023/09/01 00:53:05;;;;;;;138.77;10.32;;;38.40;56.20;;;;;;5024927;28;20061;-65
2023/09/01 00:55:33;;;;;;;162.80;10.20;;;38.40;57.00;;;;;;5025136;28;20048;-64
2023/09/01 00:58:03;;;;;;;143.02;9.90;;;38.40;57.90;;;;;;5026291;28;20018;-63
2023/09/01 01:00:32;;;;;;;143.05;12.10;;;38.30;57.30;;;;;;5025702;28;20022;-66
2023/09/01 01:03:05;;;;;;;149.85;12.52;;;38.40;57.30;;;;;;5025879;28;20025;-67
2023/09/01 01:06:09;;;;;;;146.95;12.93;;;38.30;57.20;;;;;;5023889;28;20032;-64
2023/09/01 01:08:56;;;;;;;122.43;13.40;;;38.30;56.60;;;;;;5021293;28;20033;-65
2023/09/01 01:12:07;;;;;;;144.23;14.40;;;38.20;57.00;;;;;;5024614;28;20091;-65
2023/09/01 01:14:47;;;;;;;146.48;14.68;;;38.20;56.60;;;;;;4963632;28;20086;-64
2023/09/01 01:17:19;;;;;;;127.40;13.10;;;38.20;57.30;;;;;;5025030;28;20017;-64
2023/09/01 01:19:56;;;;;;;102.40;7.97;;;38.20;57.30;;;;;;5024948;28;20499;-62
2023/09/01 01:22:49;;;;;;;124.75;8.23;;;38.20;57.00;;;;;;5024751;28;20380;-62
2023/09/01 01:25:15;;;;;;;123.47;7.70;;;38.10;56.60;;;;;;5017628;28;20487;-63
2023/09/01 01:27:43;;;;;;;105.03;7.88;;;38.10;56.40;;;;;;5024877;28;20383;-62
2023/09/01 01:30:14;;;;;;;99.22;7.88;;;38.10;56.60;;;;;;5024284;28;20010;-63
2023/09/01 01:32:41;;;;;;;97.25;6.70;;;38.10;56.30;;;;;;5025588;28;20028;-64
2023/09/01 01:35:38;;;;;;;92.38;6.50;;;38.10;56.70;;;;;;5025854;28;20017;-63
2023/09/01 01:38:13;;;;;;;;;;;38.00;57.00;;;;;;5024621;28;20133;-62
2023/09/01 01:40:43;;;;;;;105.43;7.88;;;38.00;57.80;;;;;;5023467;28;19909;-64
2023/09/01 01:43:11;;;;;;;73.15;7.30;;;37.90;57.40;;;;;;5025070;28;20024;-63
2023/09/01 01:45:42;;;;;;;71.10;7.60;;;37.90;57.10;;;;;;5028576;28;20491;-66
2023/09/01 01:48:08;;;;;;;74.53;6.35;;;37.90;56.80;;;;;;5028208;28;20430;-63
2023/09/01 01:50:35;;;;;;;61.53;6.57;;;37.80;56.10;;;;;;5028744;28;20511;-61
2023/09/01 01:53:05;;;;;;;55.38;5.88;;;37.80;55.90;;;;;;5029055;28;20013;-60
2023/09/01 01:55:33;;;;;;;63.17;6.15;;;37.80;55.20;;;;;;5028853;28;20033;-57
2023/09/01 01:57:59;;;;;;;48.25;6.13;;;37.80;55.80;;;;;;5028408;28;20470;-61
2023/09/01 02:00:29;;;;;;;69.07;6.35;;;37.60;65.10;;;;;;5028778;28;20391;-58
2023/09/01 02:02:55;;;;;;;50.00;7.18;;;37.50;68.90;;;;;;5028160;28;20025;-60
2023/09/01 02:05:22;;;;;;;33.88;5.18;;;37.30;72.10;;;;;;5029255;28;20033;-60
2023/09/01 02:07:48;;;;;;;45.95;5.82;;;37.10;73.80;;;;;;5028392;28;20045;-59
2023/09/01 02:10:14;;;;;;;35.13;6.35;;;36.90;75.00;;;;;;5028418;28;20034;-60
2023/09/01 02:12:41;;;;;;;36.63;6.13;;;36.80;75.60;;;;;;5028955;28;20010;-59
2023/09/01 02:15:10;;;;;;;32.80;5.38;;;36.70;76.50;;;;;;5028674;28;20045;-58
2023/09/01 02:17:37;;;;;;;41.28;6.40;;;36.50;77.70;;;;;;5029732;28;20107;-58
2023/09/01 02:20:23;;;;;;;23.25;6.50;;;36.40;78.20;;;;;;5029933;28;20029;-57
2023/09/01 02:22:50;;;;;;;46.65;6.55;;;36.30;79.50;;;;;;5028297;28;20163;-60
2023/09/01 02:25:17;;;;;;;38.75;6.55;;;36.20;80.50;;;;;;5027924;28;20033;-60
2023/09/01 02:27:44;;;;;;;29.83;5.95;;;36.10;82.00;;;;;;5027788;28;20022;-58
2023/09/01 02:30:11;;;;;;;35.55;6.65;;;36.00;83.50;;;;;;5026455;28;20014;-59
2023/09/01 02:32:39;;;;;;;36.97;6.90;;;35.80;84.40;;;;;;5027354;28;20390;-56
2023/09/01 02:35:08;;;;;;;32.40;6.18;;;35.70;86.10;;;;;;5027427;28;20030;-60
2023/09/01 02:37:34;;;;;;;34.65;6.00;;;35.50;87.50;;;;;;5026133;28;20043;-60
2023/09/01 02:40:01;;;;;;;31.27;5.88;;;35.50;88.30;;;;;;5027882;28;20027;-57
2023/09/01 02:42:27;;;;;;;34.85;6.38;;;35.30;89.30;;;;;;5028114;28;20035;-60
2023/09/01 02:44:54;;;;;;;27.45;5.95;;;35.20;90.00;;;;;;5027521;28;20430;-58
2023/09/01 02:47:21;;;;;;;29.40;5.93;;;35.10;90.40;;;;;;5027498;28;20156;-59
2023/09/01 02:49:47;;;;;;;39.55;6.32;;;35.00;90.80;;;;;;5027754;28;20021;-59
2023/09/01 02:52:14;;;;;;;31.10;6.78;;;35.00;91.20;;;;;;5027967;28;20072;-60
2023/09/01 02:54:40;;;;;;;35.15;6.45;;;34.80;91.60;;;;;;5027471;28;20017;-61
2023/09/01 02:57:06;;;;;;;26.98;6.25;;;34.80;91.90;;;;;;5027271;28;20018;-60
2023/09/01 02:59:33;;;;;;;28.73;5.75;;;34.70;92.20;;;;;;5027482;28;20595;-61
2023/09/01 03:01:59;;;;;;;26.85;5.88;;;34.60;92.50;;;;;;5026934;28;20018;-61
2023/09/01 03:04:26;;;;;;;40.30;5.75;;;34.60;93.00;;;;;;5027469;28;20014;-60
2023/09/01 03:06:52;;;;;;;26.35;5.82;;;34.60;93.40;;;;;;5027277;28;20036;-55
2023/09/01 03:09:18;;;;;;;22.65;4.85;;;34.50;93.70;;;;;;5027047;28;20021;-59
2023/09/01 03:11:45;;;;;;;24.65;5.82;;;34.30;93.90;;;;;;5026437;28;20037;-61
2023/09/01 03:14:11;;;;;;;30.13;5.65;;;34.40;94.20;;;;;;5024920;28;20083;-58
2023/09/01 03:16:38;;;;;;;20.73;5.60;;;34.40;94.30;;;;;;5026901;28;20032;-60
2023/09/01 03:19:04;;;;;;;26.77;5.63;;;34.30;94.40;;;;;;5026483;28;20029;-58
2023/09/01 03:21:30;;;;;;;27.15;6.07;;;34.30;94.70;;;;;;5027553;28;20049;-57
2023/09/01 03:24:00;;;;;;;23.02;5.65;;;34.30;95.20;;;;;;5028037;28;20475;-57
2023/09/01 03:26:28;;;;;;;30.30;6.32;;;34.30;95.50;;;;;;5027237;28;20033;-62
2023/09/01 03:28:55;;;;;;;24.48;6.38;;;34.20;95.90;;;;;;5024886;28;20374;-61
2023/09/01 03:31:21;;;;;;;23.77;6.55;;;34.10;96.20;;;;;;5027227;28;20028;-62
2023/09/01 03:33:48;;;;;;;20.30;6.13;;;34.10;96.50;;;;;;5027088;28;20506;-62
2023/09/01 03:36:15;;;;;;;30.40;6.68;;;34.10;96.90;;;;;;5027409;28;20414;-62
2023/09/01 03:38:41;;;;;;;23.88;7.43;;;33.90;97.20;;;;;;5026837;28;20021;-58
2023/09/01 03:41:08;;;;;;;20.00;5.78;;;33.90;97.60;;;;;;5027489;28;20379;-60
2023/09/01 03:43:36;;;;;;;27.83;6.55;;;33.90;98.00;;;;;;5027006;28;20018;-61
2023/09/01 03:46:03;;;;;;;22.52;5.57;;;33.90;98.50;;;;;;5027714;28;20021;-60
2023/09/01 03:48:29;;;;;;;25.85;5.97;;;33.80;99.00;;;;;;5026529;28;20017;-59
2023/09/01 03:51:09;;;;;;;23.50;6.68;;;33.80;99.20;;;;;;5025403;28;20025;-61
2023/09/01 03:53:37;;;;;;;18.25;6.00;;;33.70;99.60;;;;;;5026979;28;20356;-65
2023/09/01 03:56:08;;;;;;;24.17;6.40;;;33.60;99.80;;;;;;5027152;28;20026;-61
2023/09/01 03:58:36;;;;;;;20.65;5.95;;;33.60;99.90;;;;;;5026508;28;20501;-57
2023/09/01 04:01:05;;;;;;;35.03;7.05;;;33.60;99.90;;;;;;5027085;28;20029;-62
2023/09/01 04:03:32;;;;;;;28.63;7.88;;;33.60;99.90;;;;;;5027492;28;20573;-62
2023/09/01 04:05:58;;;;;;;26.92;6.82;;;33.50;99.90;;;;;;5025438;28;20063;-62
2023/09/01 04:08:25;;;;;;;24.35;6.03;;;33.50;99.90;;;;;;5026327;28;20514;-62
2023/09/01 04:10:52;;;;;;;21.52;6.07;;;33.40;99.90;;;;;;5026289;28;20080;-61
2023/09/01 04:13:18;;;;;;;36.38;7.95;;;33.40;99.90;;;;;;5027454;28;20096;-61
2023/09/01 04:15:45;;;;;;;25.25;7.22;;;33.40;99.90;;;;;;5026212;28;20021;-63
2023/09/01 04:18:11;;;;;;;23.20;6.88;;;33.40;99.90;;;;;;5026308;28;20082;-57
2023/09/01 04:20:37;;;;;;;21.42;6.85;;;33.30;99.90;;;;;;5025253;28;20021;-57
2023/09/01 04:23:05;;;;;;;28.27;7.60;;;33.30;99.90;;;;;;5025940;28;20580;-61
2023/09/01 04:25:34;;;;;;;25.10;7.32;;;33.20;99.90;;;;;;5026981;28;20087;-61
2023/09/01 04:28:00;;;;;;;25.67;7.35;;;33.20;99.90;;;;;;5025827;28;20018;-60
2023/09/01 04:30:27;;;;;;;23.05;8.68;;;33.20;99.90;;;;;;5020803;28;20013;-62
2023/09/01 04:32:53;;;;;;;22.60;8.30;;;33.20;99.90;;;;;;5026425;28;20017;-60
2023/09/01 04:35:19;;;;;;;23.98;7.65;;;33.10;99.90;;;;;;5026263;28;20044;-61
2023/09/01 04:37:46;;;;;;;29.73;8.13;;;33.00;99.90;;;;;;5026848;28;20045;-58
2023/09/01 04:40:13;;;;;;;25.67;8.23;;;32.90;99.90;;;;;;5026139;28;20018;-59
2023/09/01 04:42:39;;;;;;;21.02;7.68;;;32.90;99.90;;;;;;5027805;28;20025;-60
2023/09/01 04:45:06;;;;;;;22.38;7.20;;;32.90;99.90;;;;;;5026657;28;20056;-60
2023/09/01 04:47:33;;;;;;;20.80;6.90;;;32.90;99.90;;;;;;5026825;28;20025;-61
2023/09/01 04:49:59;;;;;;;24.92;7.40;;;32.90;99.90;;;;;;5026204;28;20096;-61
2023/09/01 04:52:26;;;;;;;28.35;7.45;;;33.00;99.90;;;;;;5026098;28;20481;-59
2023/09/01 04:54:52;;;;;;;27.90;7.38;;;32.90;99.90;;;;;;5027478;28;20010;-59
2023/09/01 04:57:18;;;;;;;24.88;7.40;;;33.00;99.90;;;;;;5027353;28;20013;-60
2023/09/01 04:59:45;;;;;;;30.73;8.50;;;33.10;99.90;;;;;;5025588;28;20018;-63
2023/09/01 05:02:11;;;;;;;32.10;7.00;;;33.10;99.90;;;;;;5026279;28;20463;-61
2023/09/01 05:04:37;;;;;;;26.50;7.40;;;33.00;99.90;;;;;;5028256;28;20375;-60
2023/09/01 05:07:04;;;;;;;29.92;7.35;;;33.10;99.90;;;;;;5025274;28;20117;-61
2023/09/01 05:09:30;;;;;;;28.65;7.32;;;33.00;99.90;;;;;;5026880;28;20022;-61
2023/09/01 05:11:57;;;;;;;25.75;7.85;;;33.00;99.90;;;;;;5025739;28;20068;-58
2023/09/01 05:14:23;;;;;;;24.33;7.10;;;33.00;99.90;;;;;;5025602;28;20014;-59
2023/09/01 05:16:49;;;;;;;30.58;8.88;;;32.90;99.90;;;;;;5026546;28;20049;-61
2023/09/01 05:19:16;;;;;;;33.60;7.63;;;32.80;99.90;;;;;;5030483;28;20009;-56
2023/09/01 05:21:42;;;;;;;25.60;7.45;;;32.90;99.90;;;;;;5029718;28;20206;-57
2023/09/01 05:24:09;;;;;;;21.90;6.60;;;32.90;99.90;;;;;;5030529;28;20024;-60
2023/09/01 05:26:35;;;;;;;25.40;6.65;;;32.80;99.90;;;;;;5030508;28;20364;-59
2023/09/01 05:29:02;;;;;;;24.92;7.15;;;32.90;99.90;;;;;;5029692;28;20148;-59
2023/09/01 05:31:28;;;;;;;23.40;5.80;;;32.90;99.90;;;;;;5030166;28;20094;-62
2023/09/01 05:33:54;;;;;;;22.15;6.53;;;32.80;99.90;;;;;;5028999;28;20128;-60
2023/09/01 05:36:21;;;;;;;21.75;6.28;;;32.70;99.90;;;;;;5029347;28;20021;-56
2023/09/01 05:38:47;;;;;;;19.88;5.70;;;32.70;99.90;;;;;;5029978;28;20403;-58
2023/09/01 05:41:14;;;;;;;27.45;7.18;;;32.70;99.90;;;;;;5029946;28;20020;-62
2023/09/01 05:43:41;;;;;;;28.60;6.95;;;32.70;99.90;;;;;;5029427;28;20014;-59
2023/09/01 05:46:07;;;;;;;30.90;7.03;;;32.70;99.90;;;;;;5029386;28;20191;-60
2023/09/01 05:48:36;;;;;;;22.00;6.57;;;32.60;99.90;;;;;;5027869;28;20020;-58
2023/09/01 05:51:03;;;;;;;18.98;6.22;;;32.60;99.90;;;;;;5029160;28;20035;-60
2023/09/01 05:53:29;;;;;;;23.15;6.70;;;32.60;99.90;;;;;;5029897;28;20021;-60
2023/09/01 05:55:55;;;;;;;20.33;6.57;;;32.50;99.90;;;;;;5027958;28;20025;-58
2023/09/01 05:58:22;;;;;;;18.63;6.60;;;32.50;99.90;;;;;;5029389;28;20029;-60
2023/09/01 06:00:49;;;;;;;23.17;6.35;;;32.50;99.90;;;;;;5027196;28;20079;-62
2023/09/01 06:03:16;;;;;;;24.92;5.60;;;32.50;99.90;;;;;;5027655;28;20064;-60
2023/09/01 06:05:42;;;;;;;18.25;5.38;;;32.40;99.90;;;;;;5027455;28;20048;-60
2023/09/01 06:08:08;;;;;;;18.55;4.97;;;32.40;99.90;;;;;;5028133;28;20402;-59
2023/09/01 06:10:35;;;;;;;18.38;5.60;;;32.40;99.90;;;;;;5026319;28;20018;-61
2023/09/01 06:13:01;;;;;;;21.40;6.00;;;32.40;99.90;;;;;;5028711;28;20029;-60
2023/09/01 06:15:28;;;;;;;20.42;5.70;;;32.40;99.90;;;;;;5027729;28;21684;-63
2023/09/01 06:17:54;;;;;;;23.50;6.05;;;32.40;99.90;;;;;;5028344;28;20055;-56
2023/09/01 06:20:21;;;;;;;17.13;5.68;;;32.40;99.90;;;;;;5026938;28;20033;-59
2023/09/01 06:22:47;;;;;;;25.70;6.38;;;32.30;99.90;;;;;;5027635;28;20096;-61
2023/09/01 06:25:14;;;;;;;21.10;6.93;;;32.30;99.90;;;;;;5027864;28;20835;-63
2023/09/01 06:27:40;;;;;;;19.48;6.88;;;32.30;99.90;;;;;;5028559;28;20025;-62
2023/09/01 06:30:07;;;;;;;24.55;6.78;;;32.40;99.90;;;;;;5027202;28;20013;-60
2023/09/01 06:32:34;;;;;;;18.45;6.47;;;32.30;99.90;;;;;;5028012;28;20020;-59
2023/09/01 06:35:00;;;;;;;29.70;7.35;;;32.20;99.90;;;;;;5026923;28;20093;-56
2023/09/01 06:37:27;;;;;;;23.50;6.95;;;32.20;99.90;;;;;;5028818;28;20013;-61
2023/09/01 06:39:53;;;;;;;22.00;6.28;;;32.20;99.90;;;;;;5030054;28;20038;-60
2023/09/01 06:42:19;;;;;;;24.08;6.22;;;32.20;99.90;;;;;;5028406;28;20039;-60
2023/09/01 06:44:46;;;;;;;26.77;6.63;;;32.20;99.90;;;;;;5028792;28;20472;-59
2023/09/01 06:47:12;;;;;;;19.83;5.68;;;32.10;99.90;;;;;;5027904;28;20617;-59
2023/09/01 06:49:39;;;;;;;19.50;6.28;;;32.10;99.90;;;;;;5027592;28;20434;-61
2023/09/01 06:52:05;;;;;;;22.63;6.15;;;32.00;99.90;;;;;;5027932;28;20057;-63
2023/09/01 06:54:32;;;;;;;26.48;6.78;;;32.00;99.90;;;;;;5028096;28;20549;-60
2023/09/01 06:56:58;;;;;;;28.25;7.10;;;32.00;99.90;;;;;;5028789;28;20190;-59
2023/09/01 06:59:24;;;;;;;21.80;6.30;;;32.00;99.90;;;;;;5029279;28;20043;-59
2023/09/01 07:01:51;;;;;;;23.90;7.28;;;31.90;99.90;;;;;;5027881;28;20021;-60
2023/09/01 07:04:17;;;;;;;27.00;6.45;;;31.90;99.90;;;;;;5027176;28;20040;-57
2023/09/01 07:06:44;;;;;;;23.98;7.32;;;32.00;99.90;;;;;;5026721;28;21013;-57
2023/09/01 07:09:10;;;;;;;28.88;6.95;;;31.90;99.90;;;;;;5026387;28;20417;-61
2023/09/01 07:11:36;;;;;;;21.33;6.50;;;31.90;99.90;;;;;;5027620;28;20482;-60
2023/09/01 07:14:03;;;;;;;24.80;6.72;;;31.80;99.90;;;;;;5027797;28;20048;-58
2023/09/01 07:16:29;;;;;;;20.95;5.70;;;31.80;99.90;;;;;;5028457;28;20047;-61
2023/09/01 07:18:55;;;;;;;27.65;7.30;;;31.80;99.90;;;;;;5026194;28;20047;-58
2023/09/01 07:21:22;;;;;;;25.15;7.10;;;31.80;99.90;;;;;;5028015;28;20017;-63
2023/09/01 07:23:49;;;;;;;25.52;6.57;;;31.80;99.90;;;;;;5028135;28;20587;-61
2023/09/01 07:26:16;;;;;;;20.83;6.63;;;31.80;99.90;;;;;;5027712;28;20086;-62
2023/09/01 07:28:42;;;;;;;28.02;7.40;;;31.70;99.90;;;;;;5027124;28;20040;-57
2023/09/01 07:31:12;;;;;;;22.50;5.93;;;31.70;99.90;;;;;;5026383;28;20043;-62
2023/09/01 07:33:43;;;;;;;23.70;5.95;;;31.70;99.90;;;;;;5027635;28;20040;-59
2023/09/01 07:36:13;;;;;;;25.30;6.22;;;31.60;99.90;;;;;;5028412;28;20045;-61
2023/09/01 07:38:39;;;;;;;22.65;6.30;;;31.70;99.90;;;;;;5027344;28;20402;-59
2023/09/01 07:41:07;;;;;;;23.05;6.60;;;31.70;99.90;;;;;;5027097;28;20025;-61
2023/09/01 07:43:35;;;;;;;18.52;5.82;;;31.70;99.90;;;;;;5027665;28;20146;-57
2023/09/01 07:46:03;;;;;;;24.75;6.20;;;31.70;99.90;;;;;;5026424;28;20059;-60
2023/09/01 07:48:29;;;;;;;24.85;6.47;;;31.70;99.90;;;;;;5026876;28;20320;-61
2023/09/01 07:50:56;;;;;;;17.77;5.95;;;31.60;99.90;;;;;;5026204;28;20417;-57
2023/09/01 07:53:22;;;;;;;32.05;6.72;;;31.60;99.90;;;;;;5026053;28;20540;-57
2023/09/01 07:55:49;;;;;;;21.38;6.53;;;31.60;99.90;;;;;;5027248;28;20058;-60
2023/09/01 07:58:15;;;;;;;22.20;5.88;;;31.60;99.90;;;;;;5027774;28;20409;-59
2023/09/01 08:00:42;;;;;;;23.27;6.18;;;31.60;99.90;;;;;;5025559;28;20040;-56
2023/09/01 08:03:10;;;;;;;27.15;6.07;;;31.60;99.90;;;;;;5026020;28;20042;-61
2023/09/01 08:05:37;;;;;;;25.48;6.93;;;31.60;99.90;;;;;;5027211;28;21414;-58
2023/09/01 08:08:05;;;;;;;25.35;7.13;;;31.50;99.90;;;;;;5026533;28;20429;-61
2023/09/01 08:10:32;;;;;;;26.17;6.40;;;31.60;99.90;;;;;;5027324;28;20040;-60
2023/09/01 08:12:58;;;;;;;29.98;6.30;;;31.60;99.90;;;;;;5027554;28;20118;-56
2023/09/01 08:15:25;;;;;;;26.25;6.50;;;31.70;99.90;;;;;;5026988;28;20051;-59
2023/09/01 08:17:53;;;;;;;20.42;6.40;;;31.90;99.90;;;;;;5027164;28;20009;-59
2023/09/01 08:20:19;;;;;;;27.73;6.43;;;32.00;99.90;;;;;;5027875;28;20079;-60
2023/09/01 08:22:46;;;;;;;19.17;5.97;;;32.10;99.90;;;;;;5026481;28;20043;-59
2023/09/01 08:25:13;;;;;;;19.80;5.80;;;32.20;99.90;;;;;;5027686;28;20387;-62
2023/09/01 08:27:39;;;;;;;20.88;6.13;;;32.30;99.90;;;;;;5027321;28;20104;-60
2023/09/01 08:30:06;;;;;;;21.33;5.70;;;32.40;99.90;;;;;;5026629;28;20029;-59
2023/09/01 08:32:33;;;;;;;33.10;6.22;;;32.40;99.90;;;;;;5027281;28;20535;-59
2023/09/01 08:35:03;;;;;;;22.42;5.50;;;32.40;99.90;;;;;;5026526;28;20136;-57
2023/09/01 08:37:30;;;;;;;21.38;5.75;;;32.40;99.90;;;;;;5025395;28;20024;-57
2023/09/01 08:39:56;;;;;;;18.83;5.07;;;32.50;99.90;;;;;;5027658;28;20454;-59
2023/09/01 08:42:24;;;;;;;18.42;5.05;;;32.50;99.90;;;;;;5026367;28;20114;-60
2023/09/01 08:44:53;;;;;;;20.73;5.88;;;32.40;99.90;;;;;;5023873;28;20421;-57
2023/09/01 08:47:23;;;;;;;18.70;5.70;;;32.30;99.90;;;;;;5024327;28;20391;-58
2023/09/01 08:49:50;;;;;;;36.72;5.60;;;32.30;99.90;;;;;;5027400;28;20071;-61
2023/09/01 08:52:19;;;;;;;23.52;5.70;;;32.20;99.90;;;;;;5024657;28;20040;-61
2023/09/01 08:54:47;;;;;;;18.33;5.65;;;32.20;99.90;;;;;;5025123;28;20623;-61
2023/09/01 08:57:14;;;;;;;21.52;5.45;;;32.10;99.90;;;;;;5026162;28;20055;-58
2023/09/01 08:59:43;;;;;;;26.55;6.28;;;32.00;99.90;;;;;;5025936;28;20039;-60
2023/09/01 09:02:09;;;;;;;23.23;5.85;;;32.00;99.90;;;;;;5025533;28;20095;-58
2023/09/01 09:04:36;;;;;;;19.30;5.82;;;32.00;99.90;;;;;;5025856;28;20047;-59
2023/09/01 09:07:17;;;;;;;19.48;5.20;;;32.10;99.90;;;;;;5026049;28;21146;-59
2023/09/01 09:10:09;;;;;;;21.10;5.47;;;32.00;99.90;;;;;;5024491;28;20041;-63
2023/09/01 09:12:41;;;;;;;17.42;4.93;;;31.90;99.90;;;;;;5024139;28;20063;-63
2023/09/01 09:15:08;;;;;;;17.98;5.30;;;32.00;99.90;;;;;;5026665;28;20571;-61
2023/09/01 09:17:46;;;;;;;21.92;5.65;;;31.90;99.90;;;;;;5025671;28;20052;-61
2023/09/01 09:20:19;;;;;;;20.60;6.03;;;31.80;99.90;;;;;;5027181;28;20050;-60
2023/09/01 09:22:57;;;;;;;24.77;6.18;;;31.80;99.90;;;;;;5026196;28;20414;-58
2023/09/01 09:25:25;;;;;;;24.50;5.43;;;31.80;99.90;;;;;;5026652;28;20041;-59
2023/09/01 09:27:52;;;;;;;22.70;5.70;;;31.90;99.90;;;;;;5024416;28;20045;-60
2023/09/01 09:30:18;;;;;;;17.77;5.78;;;31.80;99.90;;;;;;5024499;28;20101;-58
2023/09/01 09:32:45;;;;;;;20.08;5.57;;;31.80;99.90;;;;;;5025772;28;20010;-59
2023/09/01 09:35:13;;;;;;;22.63;5.18;;;31.90;99.90;;;;;;5024571;28;20457;-61
2023/09/01 09:37:42;;;;;;;19.25;5.50;;;31.90;99.90;;;;;;5024877;28;20040;-60
2023/09/01 09:40:17;;;;;;;16.67;5.43;;;31.80;99.90;;;;;;5024550;28;20079;-59
2023/09/01 09:42:45;;;;;;;20.83;6.03;;;31.80;99.90;;;;;;5025732;28;20043;-60
2023/09/01 09:45:26;;;;;;;17.50;5.05;;;31.80;99.90;;;;;;5025483;28;20040;-60
2023/09/01 09:47:55;;;;;;;17.38;5.38;;;31.80;99.90;;;;;;5025461;28;20106;-61
2023/09/01 09:50:24;;;;;;;18.75;5.68;;;31.70;99.90;;;;;;5025737;28;20044;-60
2023/09/01 09:52:59;;;;;;;19.60;5.60;;;31.70;99.90;;;;;;5025012;28;20044;-61
2023/09/01 09:55:26;;;;;;;17.20;5.40;;;31.70;99.90;;;;;;5025863;28;20418;-60
2023/09/01 09:58:05;;;;;;;19.00;5.78;;;31.70;99.90;;;;;;5025344;28;20025;-60
2023/09/01 10:00:40;;;;;;;23.52;6.55;;;31.70;99.90;;;;;;5023409;28;21347;-60
2023/09/01 10:03:08;;;;;;;16.30;5.47;;;31.70;99.90;;;;;;5021807;28;20047;-60
2023/09/01 10:05:35;;;;;;;19.02;5.50;;;31.70;99.90;;;;;;5028051;28;20059;-58
2023/09/01 10:08:04;;;;;;;24.30;6.30;;;31.70;99.90;;;;;;5028001;28;20040;-60
2023/09/01 10:10:34;;;;;;;26.35;6.40;;;31.70;99.90;;;;;;5028540;28;20351;-60
2023/09/01 10:13:06;;;;;;;33.53;6.93;;;31.60;99.90;;;;;;5027628;28;20070;-61
2023/09/01 10:15:34;;;;;;;39.85;7.55;;;31.60;99.90;;;;;;5028164;28;20062;-59
2023/09/01 10:18:05;;;;;;;46.65;6.70;;;31.60;99.90;;;;;;5027784;28;20421;-61
2023/09/01 10:20:35;;;;;;;41.53;7.28;;;31.60;99.90;;;;;;5028785;28;20019;-62
2023/09/01 10:23:05;;;;;;;44.70;8.02;;;31.60;99.90;;;;;;5028950;28;20124;-61
2023/09/01 10:25:32;;;;;;;73.00;9.30;;;31.60;99.90;;;;;;5028094;28;20155;-62
2023/09/01 10:28:12;;;;;;;111.35;12.15;;;31.60;99.90;;;;;;5028368;28;20059;-60
2023/09/01 10:30:45;;;;;;;97.72;11.85;;;31.60;99.90;;;;;;5027459;28;20040;-60
2023/09/01 10:33:27;;;;;;;135.18;14.40;;;31.50;99.90;;;;;;5028707;28;20424;-60
2023/09/01 10:35:57;;;;;;;164.27;17.50;;;31.50;99.90;;;;;;5026648;28;20048;-61
2023/09/01 10:38:37;;;;;;;204.18;19.77;;;31.50;99.90;;;;;;5026829;28;20055;-60
2023/09/01 10:41:04;;;;;;;303.17;27.15;;;31.50;99.90;;;;;;5028634;28;20494;-55
2023/09/01 10:43:41;;;;;;;294.83;27.92;;;31.40;99.90;;;;;;5028180;28;20079;-60
2023/09/01 10:46:14;;;;;;;304.58;30.13;;;31.40;99.90;;;;;;5027437;28;20150;-56
2023/09/01 10:48:59;;;;;;;288.75;26.73;;;31.40;99.90;;;;;;5028491;28;20190;-59
2023/09/01 10:51:30;;;;;;;312.10;28.25;;;31.50;99.90;;;;;;5026454;28;20098;-63
2023/09/01 10:54:00;;;;;;;325.73;30.30;;;31.50;99.90;;;;;;5026766;28;20557;-61
2023/09/01 10:56:29;;;;;;;302.55;27.35;;;31.50;99.90;;;;;;5029018;28;20047;-60
2023/09/01 10:58:58;;;;;;;315.67;28.23;;;31.50;99.90;;;;;;5026501;28;20094;-60
2023/09/01 11:01:38;;;;;;;310.33;27.88;;;31.50;99.90;;;;;;5026195;28;20055;-58
2023/09/01 11:04:22;;;;;;;277.00;25.80;;;31.60;99.90;;;;;;5026429;28;20082;-60
2023/09/01 11:07:00;;;;;;;243.95;22.33;;;31.60;99.90;;;;;;5026444;28;20536;-61
2023/09/01 11:09:33;;;;;;;250.05;23.40;;;31.60;99.90;;;;;;5025100;28;20663;-57
2023/09/01 11:12:03;;;;;;;227.75;21.15;;;31.50;99.90;;;;;;5025874;28;20048;-60
2023/09/01 11:14:34;;;;;;;260.17;21.73;;;31.60;99.90;;;;;;5027226;28;20130;-59
2023/09/01 11:17:03;;;;;;;257.63;24.88;;;31.50;99.90;;;;;;5027677;28;20030;-58
2023/09/01 11:19:33;;;;;;;269.35;24.20;;;31.50;99.90;;;;;;5027244;28;20060;-60
2023/09/01 11:22:00;;;;;;;264.73;25.30;;;31.40;99.90;;;;;;5025701;28;20048;-58
2023/09/01 11:24:26;;;;;;;297.95;24.00;;;31.40;99.90;;;;;;5026294;28;20062;-61
2023/09/01 11:26:52;;;;;;;266.60;24.88;;;31.40;99.90;;;;;;5027780;28;20547;-60
2023/09/01 11:29:19;;;;;;;284.20;23.42;;;31.40;99.90;;;;;;5027134;28;20052;-57
2023/09/01 11:31:46;;;;;;;289.70;26.85;;;31.40;99.90;;;;;;5027158;28;20036;-60
2023/09/01 11:34:13;;;;;;;261.85;24.95;;;31.40;99.90;;;;;;5027181;28;20827;-59
2023/09/01 11:36:50;;;;;;;284.38;23.95;;;31.40;99.90;;;;;;5026833;28;20050;-56
2023/09/01 11:39:16;;;;;;;269.00;24.10;;;31.40;99.90;;;;;;5026358;28;20077;-61
2023/09/01 11:41:43;;;;;;;247.88;22.73;;;31.50;99.90;;;;;;5025144;28;20521;-59
2023/09/01 11:44:10;;;;;;;291.35;24.48;;;31.40;99.90;;;;;;5026543;28;20081;-59
2023/09/01 11:46:37;;;;;;;263.10;21.83;;;31.30;99.90;;;;;;5026576;28;20069;-60
2023/09/01 11:49:05;;;;;;;236.07;23.85;;;31.30;99.90;;;;;;5025656;28;20051;-60
2023/09/01 11:51:37;;;;;;;250.68;21.95;;;31.20;99.90;;;;;;5026719;28;20044;-59
2023/09/01 11:54:04;;;;;;;219.88;19.92;;;31.20;99.90;;;;;;5026354;28;20049;-59
2023/09/01 11:56:31;;;;;;;229.73;21.58;;;31.10;99.90;;;;;;5027544;28;20141;-60
2023/09/01 11:58:58;;;;;;;232.90;20.38;;;31.10;99.90;;;;;;5026427;28;20174;-59
2023/09/01 12:01:32;;;;;;;250.13;23.50;;;31.10;99.90;;;;;;5041115;28;20079;-62
2023/09/01 12:04:09;;;;;;;241.48;20.50;;;31.10;99.90;;;;;;5025924;28;20130;-59
2023/09/01 12:06:45;;;;;;;250.25;22.58;;;31.10;99.90;;;;;;5024230;28;20566;-59
2023/09/01 12:09:21;;;;;;;207.15;20.67;;;31.10;99.90;;;;;;5025505;28;20505;-58
2023/09/01 12:12:02;;;;;;;230.55;22.73;;;31.00;99.90;;;;;;5024698;28;20119;-60
2023/09/01 12:14:32;;;;;;;219.07;19.52;;;31.10;99.90;;;;;;5024680;28;20076;-59
2023/09/01 12:17:00;;;;;;;224.07;20.80;;;31.00;99.90;;;;;;5025372;28;20064;-60
2023/09/01 12:19:28;;;;;;;217.02;21.63;;;31.10;99.90;;;;;;5025428;28;21631;-61
2023/09/01 12:21:58;;;;;;;196.88;21.02;;;31.00;99.90;;;;;;5026248;28;20414;-60
2023/09/01 12:24:24;;;;;;;230.10;21.00;;;30.90;99.90;;;;;;5027621;28;20102;-57
2023/09/01 12:26:51;;;;;;;206.63;20.70;;;30.90;99.90;;;;;;5026202;28;20096;-59
2023/09/01 12:29:17;;;;;;;198.90;20.13;;;30.90;99.90;;;;;;5025476;28;20044;-59
2023/09/01 12:31:44;;;;;;;193.65;19.83;;;30.90;99.90;;;;;;5026468;28;20090;-59
2023/09/01 12:34:10;;;;;;;217.68;19.02;;;31.00;99.90;;;;;;5026123;28;20131;-63
2023/09/01 12:36:37;;;;;;;202.57;21.33;;;31.00;99.90;;;;;;5023939;28;21580;-60
2023/09/01 12:39:03;;;;;;;189.55;17.92;;;31.00;99.90;;;;;;5024774;28;20041;-60
2023/09/01 12:41:29;;;;;;;203.60;19.33;;;30.90;99.90;;;;;;5025215;28;20080;-60